Time;durP1;ratioP1;P1;durP2;ratioP2;P2;SDS_P1;SDS_P2;PMS_P1;PMS_P2;Temp;Humidity;BMP_temperature;BMP_pressure;BME280_temperature;BME280_humidity;BME280_pressure;Samples;Min_cycle;Max_cycle;Signal;HPM_P1;HPM_P2
2022/03/05 00:01:11;;;;;;;;;;;-1.90;99.90;;;;;;5089560;28;19963;-69
2022/03/05 00:03:38;;;;;;;;;;;-2.00;99.90;;;;;;5090858;28;20394;-69
2022/03/05 00:06:05;;;;;;;;;;;-2.00;99.90;;;;;;5095226;28;19924;-69
2022/03/05 00:08:32;;;;;;;;;;;-2.00;99.90;;;;;;5076047;28;19947;-68
2022/03/05 00:10:59;;;;;;;;;;;-2.00;99.90;;;;;;5077334;28;20333;-69
2022/03/05 00:13:26;;;;;;;;;;;-2.00;99.90;;;;;;5093072;28;19970;-69
2022/03/05 00:15:52;;;;;;;;;;;-2.00;99.90;;;;;;5090198;28;19966;-69
2022/03/05 00:18:19;;;;;;;;;;;-2.00;99.90;;;;;;5084617;28;19929;-69
2022/03/05 00:20:46;;;;;;;;;;;-1.90;99.90;;;;;;5082139;28;19928;-69
2022/03/05 00:23:16;;;;;;;;;;;-1.90;99.90;;;;;;5092784;28;20007;-69
2022/03/05 00:25:49;;;;;;;;;;;-1.90;99.90;;;;;;5096170;28;19931;-69
2022/03/05 00:28:15;;;;;;;;;;;-2.00;99.90;;;;;;5094010;28;19928;-68
2022/03/05 00:30:45;;;;;;;;;;;-2.00;99.90;;;;;;5090962;28;19975;-69
2022/03/05 00:33:12;;;;;;;;;;;-2.00;99.90;;;;;;5076706;28;20401;-69
2022/03/05 00:35:39;;;;;;;;;;;-2.00;99.90;;;;;;5088224;28;19943;-69
2022/03/05 00:38:11;;;;;;;;;;;-2.00;99.90;;;;;;5086101;28;20390;-69
2022/03/05 00:40:39;;;;;;;;;;;-2.00;99.90;;;;;;5094557;28;19966;-69
2022/03/05 00:43:06;;;;;;;;;;;-2.00;99.90;;;;;;5094079;28;19928;-69
2022/03/05 00:45:36;;;;;;;;;;;-2.00;99.90;;;;;;5088579;28;19964;-69
2022/03/05 00:48:07;;;;;;;;;;;-2.00;99.90;;;;;;5089070;28;21339;-69
2022/03/05 00:50:34;;;;;;;;;;;-2.00;99.90;;;;;;5080007;28;19955;-68
2022/03/05 00:53:01;;;;;;;;;;;-2.00;99.90;;;;;;5094796;28;20018;-69
2022/03/05 00:55:28;;;;;;;;;;;-2.00;99.90;;;;;;5079512;28;20144;-69
2022/03/05 00:57:55;;;;;;;;;;;-2.00;99.90;;;;;;5077752;28;19924;-69
2022/03/05 01:00:22;;;;;;;;;;;-2.00;99.90;;;;;;5095669;28;19928;-69
2022/03/05 01:02:49;;;;;;;;;;;-2.00;99.90;;;;;;5085870;28;20411;-69
2022/03/05 01:05:16;;;;;;;;;;;-2.00;99.90;;;;;;5091860;28;20454;-69
2022/03/05 01:07:42;;;;;;;;;;;-2.00;99.90;;;;;;5090698;28;20031;-69
2022/03/05 01:10:09;;;;;;;;;;;-1.90;99.90;;;;;;5076588;28;19924;-69
2022/03/05 01:12:36;;;;;;;;;;;-2.00;99.90;;;;;;5083111;28;19977;-69
2022/03/05 01:15:04;;;;;;;;;;;-2.00;99.90;;;;;;5092352;28;19970;-69
2022/03/05 01:17:30;;;;;;;;;;;-2.00;99.90;;;;;;5082551;28;20329;-69
2022/03/05 01:19:57;;;;;;;;;;;-2.00;99.90;;;;;;5081897;28;20467;-69
2022/03/05 01:22:24;;;;;;;;;;;-2.20;99.90;;;;;;5089699;28;19924;-68
2022/03/05 01:24:50;;;;;;;;;;;-2.30;99.90;;;;;;5082868;28;19970;-68
2022/03/05 01:27:18;;;;;;;;;;;-2.30;99.90;;;;;;5083500;28;19925;-68
2022/03/05 01:29:48;;;;;;;;;;;-2.30;99.90;;;;;;5072621;28;19924;-69
2022/03/05 01:32:15;;;;;;;;;;;-2.30;99.90;;;;;;5087277;28;20023;-67
2022/03/05 01:34:41;;;;;;;;;;;-2.40;99.90;;;;;;5088736;28;20965;-68
2022/03/05 01:37:09;;;;;;;;;;;-2.50;99.90;;;;;;5073028;28;19931;-68
2022/03/05 01:39:36;;;;;;;;;;;-2.50;99.90;;;;;;5074251;28;19963;-68
2022/03/05 01:42:04;;;;;;;;;;;-2.50;99.90;;;;;;5086934;28;19977;-68
2022/03/05 01:44:30;;;;;;;;;;;-2.50;99.90;;;;;;5090876;28;19927;-68
2022/03/05 01:47:02;;;;;;;;;;;-2.50;99.90;;;;;;5073792;28;20031;-68
2022/03/05 01:49:31;;;;;;;;;;;-2.50;99.90;;;;;;5085184;28;19924;-68
2022/03/05 01:51:58;;;;;;;;;;;-2.50;99.90;;;;;;5072947;28;19938;-68
2022/03/05 01:54:25;;;;;;;;;;;-2.60;99.90;;;;;;5078784;28;19924;-69
2022/03/05 01:56:53;;;;;;;;;;;-2.50;99.90;;;;;;5071141;28;19924;-69
2022/03/05 01:59:20;;;;;;;;;;;-2.50;99.90;;;;;;5071892;28;19960;-68
2022/03/05 02:01:50;;;;;;;;;;;-2.60;99.90;;;;;;5079118;28;20000;-68
2022/03/05 02:04:20;;;;;;;;;;;-2.60;99.90;;;;;;5090049;28;19923;-68
2022/03/05 02:06:47;;;;;;;;;;;-2.70;99.90;;;;;;5091424;28;20035;-68
2022/03/05 02:09:14;;;;;;;;;;;-2.70;99.90;;;;;;5073960;28;20454;-69
2022/03/05 02:11:43;;;;;;;;;;;-2.70;99.90;;;;;;5073297;28;19924;-68
2022/03/05 02:14:10;;;;;;;;;;;-2.80;99.90;;;;;;5084220;28;20042;-69
2022/03/05 02:16:36;;;;;;;;;;;-2.80;99.90;;;;;;5089332;28;19924;-69
2022/03/05 02:19:05;;;;;;;;;;;-2.80;99.90;;;;;;5080547;28;19925;-69
2022/03/05 02:21:32;;;;;;;;;;;-2.90;99.90;;;;;;5076155;28;20400;-69
2022/03/05 02:23:59;;;;;;;;;;;-2.90;99.90;;;;;;5087253;28;20371;-69
2022/03/05 02:26:26;;;;;;;;;;;-2.80;99.90;;;;;;5072108;28;20042;-66
2022/03/05 02:28:53;;;;;;;;;;;-2.90;99.90;;;;;;5075573;28;19930;-69
2022/03/05 02:31:19;;;;;;;;;;;-2.90;99.90;;;;;;5083390;28;19943;-69
2022/03/05 02:33:46;;;;;;;;;;;-2.90;99.90;;;;;;5071962;28;19931;-69
2022/03/05 02:36:13;;;;;;;;;;;-2.90;99.90;;;;;;5084226;28;19930;-69
2022/03/05 02:38:40;;;;;;;;;;;-2.90;99.90;;;;;;5081434;28;19928;-68
2022/03/05 02:41:06;;;;;;;;;;;-2.90;99.90;;;;;;5073890;28;20052;-68
2022/03/05 02:43:36;;;;;;;;;;;-2.90;99.90;;;;;;5090428;28;20564;-69
2022/03/05 02:46:03;;;;;;;;;;;-2.90;99.90;;;;;;5072035;28;20366;-67
2022/03/05 02:48:30;;;;;;;;;;;-2.90;99.90;;;;;;5087656;28;19965;-67
2022/03/05 02:50:56;;;;;;;;;;;-3.00;99.90;;;;;;5090156;28;19924;-67
2022/03/05 02:53:23;;;;;;;;;;;-3.00;99.90;;;;;;5090328;28;19963;-67
2022/03/05 02:55:50;;;;;;;;;;;-3.00;99.90;;;;;;5074536;28;19929;-67
2022/03/05 02:58:17;;;;;;;;;;;-3.00;99.90;;;;;;5070364;28;19985;-68
2022/03/05 03:00:46;;;;;;;;;;;-2.90;99.90;;;;;;5079756;28;19931;-68
2022/03/05 03:03:13;;;;;;;;;;;-3.00;99.90;;;;;;5075480;28;19978;-69
2022/03/05 03:05:43;;;;;;;;;;;-3.00;99.90;;;;;;5091072;28;20018;-69
2022/03/05 03:08:09;;;;;;;;;;;-3.00;99.90;;;;;;5077535;28;19935;-68
2022/03/05 03:10:38;;;;;;;;;;;-3.00;99.90;;;;;;5085494;28;20044;-68
2022/03/05 03:13:05;;;;;;;;;;;-3.00;99.90;;;;;;5071889;28;19964;-68
2022/03/05 03:15:32;;;;;;;;;;;-3.00;99.90;;;;;;5071734;28;19928;-68
2022/03/05 03:18:01;;;;;;;;;;;-3.10;99.90;;;;;;5078974;28;19942;-69
2022/03/05 03:20:28;;;;;;;;;;;-3.10;99.90;;;;;;5071571;28;20351;-69
2022/03/05 03:22:55;;;;;;;;;;;-3.10;99.90;;;;;;5078911;28;20401;-69
2022/03/05 03:25:22;;;;;;;;;;;-3.10;99.90;;;;;;5087586;28;19967;-69
2022/03/05 03:27:49;;;;;;;;;;;-3.10;99.90;;;;;;5071977;28;20007;-69
2022/03/05 03:30:17;;;;;;;;;;;-3.10;99.90;;;;;;5085139;28;19925;-69
2022/03/05 03:32:44;;;;;;;;;;;-3.10;99.90;;;;;;5079462;28;20018;-69
2022/03/05 03:35:12;;;;;;;;;;;-3.10;99.90;;;;;;5070902;28;20011;-69
2022/03/05 03:37:40;;;;;;;;;;;-3.10;99.90;;;;;;5070195;28;19928;-69
2022/03/05 03:40:11;;;;;;;;;;;-3.10;99.90;;;;;;5074045;28;20052;-68
2022/03/05 03:42:38;;;;;;;;;;;-3.00;99.90;;;;;;5090132;28;20027;-68
2022/03/05 03:45:05;;;;;;;;;;;-3.00;99.90;;;;;;5088899;28;20031;-69
2022/03/05 03:47:33;;;;;;;;;;;-3.10;99.90;;;;;;5073254;28;19928;-69
2022/03/05 03:49:59;;;;;;;;;;;-3.10;99.90;;;;;;5071931;28;19974;-67
2022/03/05 03:52:26;;;;;;;;;;;-3.20;99.90;;;;;;5070996;28;19924;-68
2022/03/05 03:54:53;;;;;;;;;;;-3.20;99.90;;;;;;5081711;28;19924;-68
2022/03/05 03:57:20;;;;;;;;;;;-3.10;99.90;;;;;;5075611;28;20367;-68
2022/03/05 03:59:47;;;;;;;;;;;-3.10;99.90;;;;;;5079951;28;20015;-69
2022/03/05 04:02:14;;;;;;;;;;;-3.20;99.90;;;;;;5089914;28;19924;-68
2022/03/05 04:04:41;;;;;;;;;;;-3.20;99.90;;;;;;5072579;28;19929;-68
2022/03/05 04:10:03;;;;;;;;;;;-3.30;99.90;;;;;;5086256;28;20546;-68
2022/03/05 04:12:30;;;;;;;;;;;-3.30;99.90;;;;;;5083927;28;20011;-68
2022/03/05 04:14:57;;;;;;;;;;;-3.30;99.90;;;;;;5082529;28;19924;-69
2022/03/05 04:17:23;;;;;;;;;;;-3.40;99.90;;;;;;5070098;28;20436;-69
2022/03/05 04:19:50;;;;;;;;;;;-3.50;99.90;;;;;;5069699;28;20017;-69
2022/03/05 04:22:23;;;;;;;;;;;-3.40;99.90;;;;;;5081313;28;19967;-69
2022/03/05 04:24:50;;;;;;;;;;;-3.50;99.90;;;;;;5086291;28;19928;-71
2022/03/05 04:27:16;;;;;;;;;;;-3.50;99.90;;;;;;5085486;28;19990;-70
2022/03/05 04:29:43;;;;;;;;;;;-3.50;99.90;;;;;;5087987;28;19974;-70
2022/03/05 04:32:10;;;;;;;;;;;-3.50;99.90;;;;;;5070992;28;19931;-69
2022/03/05 04:34:36;;;;;;;;;;;-3.60;99.90;;;;;;5074771;28;20015;-68
2022/03/05 04:37:07;;;;;;;;;;;-3.60;99.90;;;;;;5079497;28;20413;-68
2022/03/05 04:39:37;;;;;;;;;;;-3.60;99.90;;;;;;5083317;28;20345;-68
2022/03/05 04:42:04;;;;;;;;;;;-3.60;99.90;;;;;;5089597;28;20298;-68
2022/03/05 04:44:33;;;;;;;;;;;-3.50;99.90;;;;;;5083289;28;20768;-68
2022/03/05 04:47:00;;;;;;;;;;;-3.40;99.90;;;;;;5079551;28;19935;-67
2022/03/05 04:49:26;;;;;;;;;;;-3.50;99.90;;;;;;5074049;28;19936;-69
2022/03/05 04:51:55;;;;;;;;;;;-3.40;99.90;;;;;;5073722;28;19924;-68
2022/03/05 04:54:25;;;;;;;;;;;-3.50;99.90;;;;;;5074233;28;19931;-69
2022/03/05 04:56:51;;;;;;;;;;;-3.50;99.90;;;;;;5090657;28;20000;-69
2022/03/05 04:59:21;;;;;;;;;;;-3.50;99.90;;;;;;5086417;28;19924;-69
2022/03/05 05:01:48;;;;;;;;;;;-3.50;99.90;;;;;;5074137;28;20002;-68
2022/03/05 05:04:15;;;;;;;;;;;-3.50;99.90;;;;;;5073915;28;20360;-69
2022/03/05 05:06:41;;;;;;;;;;;-3.50;99.90;;;;;;5084521;28;20297;-69
2022/03/05 05:09:08;;;;;;;;;;;-3.50;99.90;;;;;;5088149;28;20016;-68
2022/03/05 05:11:34;;;;;;;;;;;-3.50;99.90;;;;;;5073791;28;20002;-68
2022/03/05 05:14:01;;;;;;;;;;;-3.50;99.90;;;;;;5089621;28;19924;-69
2022/03/05 05:16:28;;;;;;;;;;;-3.50;99.90;;;;;;5076494;28;19950;-68
2022/03/05 05:19:28;;;;;;;;;;;-3.50;99.90;;;;;;5072639;28;19924;-69
2022/03/05 05:21:47;;;;;;;;;;;-3.60;99.90;;;;;;5087559;28;19931;-69
2022/03/05 05:24:14;;;;;;;;;;;-3.60;99.90;;;;;;5091312;28;19923;-69
2022/03/05 05:26:40;;;;;;;;;;;-3.60;99.90;;;;;;5087624;28;19932;-69
2022/03/05 05:29:13;;;;;;;;;;;-3.60;99.90;;;;;;5080071;28;20018;-69
2022/03/05 05:32:00;;;;;;;;;;;-3.60;99.90;;;;;;5082181;28;20015;-69
2022/03/05 05:34:27;;;;;;;;;;;-3.60;99.90;;;;;;5082727;28;19932;-69
2022/03/05 05:36:56;;;;;;;;;;;-3.60;99.90;;;;;;5080302;28;20014;-69
2022/03/05 05:39:22;;;;;;;;;;;-3.60;99.90;;;;;;5086999;28;19930;-69
2022/03/05 05:41:49;;;;;;;;;;;-3.60;99.90;;;;;;5092078;28;19924;-70
2022/03/05 05:44:16;;;;;;;;;;;-3.70;99.90;;;;;;5082298;28;19924;-70
2022/03/05 05:46:42;;;;;;;;;;;-3.70;99.90;;;;;;5088470;28;19969;-70
2022/03/05 05:49:09;;;;;;;;;;;-3.70;99.90;;;;;;5076707;28;20382;-70
2022/03/05 05:51:36;;;;;;;;;;;-3.70;99.90;;;;;;5091442;28;20480;-70
2022/03/05 05:54:03;;;;;;;;;;;-3.70;99.90;;;;;;5091954;28;20003;-70
2022/03/05 05:56:32;;;;;;;;;;;-3.70;99.90;;;;;;5074772;28;20011;-70
2022/03/05 05:58:59;;;;;;;;;;;-3.70;99.90;;;;;;5087227;28;19924;-70
2022/03/05 06:01:25;;;;;;;;;;;-3.60;99.90;;;;;;5089353;28;20052;-69
2022/03/05 06:03:53;;;;;;;;;;;-3.60;99.90;;;;;;5090077;28;19924;-69
2022/03/05 06:06:21;;;;;;;;;;;-3.60;99.90;;;;;;5080138;28;19928;-69
2022/03/05 06:08:48;;;;;;;;;;;-3.60;99.90;;;;;;5086628;28;20031;-69
2022/03/05 06:11:15;;;;;;;;;;;-3.60;99.90;;;;;;5071680;28;19932;-71
2022/03/05 06:13:41;;;;;;;;;;;-3.60;99.90;;;;;;5077289;28;19924;-69
2022/03/05 06:16:08;;;;;;;;;;;-3.50;99.90;;;;;;5075424;28;19955;-70
2022/03/05 06:18:35;;;;;;;;;;;-3.40;99.90;;;;;;5090820;28;19931;-70
2022/03/05 06:21:02;;;;;;;;;;;-3.40;99.90;;;;;;5090670;28;19924;-71
2022/03/05 06:23:30;;;;;;;;;;;-3.40;99.90;;;;;;5088643;28;20387;-70
2022/03/05 06:25:56;;;;;;;;;;;-3.30;99.90;;;;;;5090668;28;20020;-70
2022/03/05 06:28:30;;;;;;;;;;;-3.20;99.90;;;;;;5090328;28;19928;-70
2022/03/05 06:30:57;;;;;;;;;;;-3.10;99.90;;;;;;5089068;28;20011;-70
2022/03/05 06:33:24;;;;;;;;;;;-3.10;99.90;;;;;;5071598;28;19967;-70
2022/03/05 06:35:51;;;;;;;;;;;-3.10;99.90;;;;;;5079520;28;19928;-70
2022/03/05 06:38:17;;;;;;;;;;;-3.10;99.90;;;;;;5080173;28;19925;-70
2022/03/05 06:40:47;;;;;;;;;;;-3.00;99.90;;;;;;5072194;28;20011;-70
2022/03/05 06:43:16;;;;;;;;;;;-2.90;99.90;;;;;;5072467;28;19924;-70
2022/03/05 06:45:43;;;;;;;;;;;-2.90;99.90;;;;;;5085909;28;20324;-69
2022/03/05 06:48:10;;;;;;;;;;;-2.80;99.90;;;;;;5071599;28;20070;-69
2022/03/05 06:50:37;;;;;;;;;;;-2.70;99.90;;;;;;5086206;28;20010;-70
2022/03/05 06:53:04;;;;;;;;;;;-2.60;99.90;;;;;;5089461;28;20477;-70
2022/03/05 06:55:31;;;;;;;;;;;-2.40;99.90;;;;;;5072701;28;20019;-70
2022/03/05 06:57:58;;;;;;;;;;;-1.90;99.90;;;;;;5076253;28;19933;-71
2022/03/05 07:00:24;;;;;;;;;;;-1.40;99.90;;;;;;5080734;28;20284;-71
2022/03/05 07:02:51;;;;;;;;;;;-0.90;99.90;;;;;;5081178;28;20383;-70
2022/03/05 07:05:18;;;;;;;;;;;-0.30;99.90;;;;;;5075502;28;20574;-71
2022/03/05 07:07:45;;;;;;;;;;;0.30;99.90;;;;;;5077842;28;20588;-71
2022/03/05 07:10:11;;;;;;;;;;;0.60;99.90;;;;;;5080772;28;19967;-71
2022/03/05 07:12:41;;;;;;;;;;;0.90;99.90;;;;;;5075966;28;20374;-70
2022/03/05 07:15:17;;;;;;;;;;;1.20;99.90;;;;;;5090656;28;20007;-70
2022/03/05 07:17:48;;;;;;;;;;;1.60;99.90;;;;;;5075137;28;19932;-70
2022/03/05 07:20:17;;;;;;;;;;;1.80;99.90;;;;;;5070655;28;20011;-72
2022/03/05 07:22:44;;;;;;;;;;;1.80;99.90;;;;;;5070612;28;20006;-71
2022/03/05 07:25:14;;;;;;;;;;;1.90;99.90;;;;;;5071064;28;19985;-69
2022/03/05 07:27:42;;;;;;;;;;;2.10;99.90;;;;;;5070908;28;19968;-70
2022/03/05 07:30:09;;;;;;;;;;;2.20;99.90;;;;;;5085073;28;20007;-70
2022/03/05 07:32:35;;;;;;;;;;;2.50;99.90;;;;;;5079084;28;20283;-70
2022/03/05 07:35:03;;;;;;;;;;;2.60;99.90;;;;;;5070589;28;19964;-70
2022/03/05 07:37:36;;;;;;;;;;;2.80;99.90;;;;;;5070584;28;19928;-70
2022/03/05 07:40:06;;;;;;;;;;;2.70;99.90;;;;;;5075651;28;19924;-70
2022/03/05 07:42:35;;;;;;;;;;;2.70;99.90;;;;;;5073715;28;20012;-70
2022/03/05 07:45:02;;;;;;;;;;;2.70;99.90;;;;;;5074958;28;20259;-70
2022/03/05 07:47:29;;;;;;;;;;;2.70;99.90;;;;;;5074431;28;19928;-71
2022/03/05 07:49:56;;;;;;;;;;;2.80;99.90;;;;;;5070137;28;19954;-71
2022/03/05 07:52:22;;;;;;;;;;;2.80;99.90;;;;;;5070191;28;19964;-71
2022/03/05 07:54:51;;;;;;;;;;;2.80;99.90;;;;;;5078054;28;19935;-71
2022/03/05 07:57:18;;;;;;;;;;;3.00;99.90;;;;;;5070085;28;19925;-70
2022/03/05 07:59:46;;;;;;;;;;;3.40;99.90;;;;;;5069772;28;19925;-71
2022/03/05 08:02:33;;;;;;;;;;;3.60;99.90;;;;;;5070835;28;19931;-70
2022/03/05 08:05:00;;;;;;;;;;;3.60;99.90;;;;;;5086164;28;19924;-70
2022/03/05 08:07:29;;;;;;;;;;;3.70;99.90;;;;;;5089108;28;19952;-70
2022/03/05 08:09:58;;;;;;;;;;;3.70;99.90;;;;;;5073058;28;20014;-69
2022/03/05 08:12:25;;;;;;;;;;;3.50;99.90;;;;;;5075501;28;19924;-70
2022/03/05 08:14:52;;;;;;;;;;;3.40;99.90;;;;;;5083420;28;19928;-70
2022/03/05 08:17:19;;;;;;;;;;;3.50;99.90;;;;;;5074729;28;19932;-70
2022/03/05 08:19:45;;;;;;;;;;;3.50;99.90;;;;;;5074997;28;19924;-70
2022/03/05 08:22:23;;;;;;;;;;;3.60;99.90;;;;;;5081318;28;19963;-70
2022/03/05 08:24:50;;;;;;;;;;;3.90;99.90;;;;;;5082404;28;20011;-70
2022/03/05 08:27:17;;;;;;;;;;;3.90;99.90;;;;;;5074267;28;20019;-70
2022/03/05 08:29:44;;;;;;;;;;;3.80;99.90;;;;;;5082423;28;19963;-70
2022/03/05 08:32:12;;;;;;;;;;;3.90;99.90;;;;;;5080038;28;19963;-69
2022/03/05 08:34:41;;;;;;;;;;;4.10;99.90;;;;;;5083217;28;19931;-68
2022/03/05 08:37:08;;;;;;;;;;;4.50;99.90;;;;;;5073968;28;20042;-69
2022/03/05 08:39:41;;;;;;;;;;;4.70;99.90;;;;;;5084230;28;20014;-69
2022/03/05 08:42:08;;;;;;;;;;;4.50;99.90;;;;;;5093180;28;19959;-70
2022/03/05 08:44:35;;;;;;;;;;;4.60;99.90;;;;;;5077156;28;19936;-70
2022/03/05 08:47:02;;;;;;;;;;;4.90;99.90;;;;;;5088098;28;20523;-69
2022/03/05 08:49:29;;;;;;;;;;;4.80;99.90;;;;;;5074434;28;20040;-70
2022/03/05 08:51:56;;;;;;;;;;;4.70;99.90;;;;;;5075908;28;20025;-70
2022/03/05 08:54:22;;;;;;;;;;;4.70;99.90;;;;;;5092676;28;20031;-70
2022/03/05 08:56:52;;;;;;;;;;;4.90;99.90;;;;;;5088029;28;19928;-69
2022/03/05 08:59:18;;;;;;;;;;;4.90;99.90;;;;;;5080972;28;19930;-70
2022/03/05 09:01:45;;;;;;;;;;;4.90;99.90;;;;;;5088937;28;20023;-68
2022/03/05 09:04:12;;;;;;;;;;;5.30;99.90;;;;;;5088484;28;19924;-69
2022/03/05 09:06:39;;;;;;;;;;;5.70;99.90;;;;;;5073060;28;19924;-69
2022/03/05 09:09:06;;;;;;;;;;;6.00;99.90;;;;;;5080945;28;20007;-69
2022/03/05 09:11:34;;;;;;;;;;;6.10;99.90;;;;;;5088357;28;19924;-69
2022/03/05 09:14:01;;;;;;;;;;;6.30;99.90;;;;;;5073246;28;19939;-69
2022/03/05 09:16:27;;;;;;;;;;;6.50;99.90;;;;;;5073435;28;20015;-69
2022/03/05 09:18:57;;;;;;;;;;;6.80;99.90;;;;;;5076381;28;19924;-69
2022/03/05 09:21:24;;;;;;;;;;;6.90;99.90;;;;;;5090934;28;19924;-69
2022/03/05 09:23:50;;;;;;;;;;;7.00;99.90;;;;;;5073180;28;20347;-69
2022/03/05 09:26:18;;;;;;;;;;;7.30;99.90;;;;;;5090126;28;19932;-69
2022/03/05 09:28:44;;;;;;;;;;;7.70;99.90;;;;;;5092061;28;19970;-68
2022/03/05 09:31:11;;;;;;;;;;;7.90;99.90;;;;;;5090222;28;19934;-68
2022/03/05 09:33:38;;;;;;;;;;;7.90;99.90;;;;;;5078079;28;19924;-68
2022/03/05 09:36:08;;;;;;;;;;;8.50;99.90;;;;;;5076269;28;19924;-68
2022/03/05 09:38:35;;;;;;;;;;;9.00;99.90;;;;;;5090337;28;19924;-68
2022/03/05 09:41:02;;;;;;;;;;;9.00;99.90;;;;;;5073412;28;19931;-68
2022/03/05 09:43:29;;;;;;;;;;;8.90;99.90;;;;;;5073289;28;19931;-69
2022/03/05 09:45:59;;;;;;;;;;;8.40;99.90;;;;;;5087153;28;19925;-68
2022/03/05 09:48:27;;;;;;;;;;;8.70;99.90;;;;;;5085990;28;19924;-68
2022/03/05 09:50:57;;;;;;;;;;;8.70;99.90;;;;;;5073297;28;19998;-69
2022/03/05 09:53:28;;;;;;;;;;;8.70;99.90;;;;;;5073126;28;20439;-69
2022/03/05 09:55:55;;;;;;;;;;;8.30;99.90;;;;;;5087738;28;19974;-69
2022/03/05 09:58:41;;;;;;;;;;;8.50;99.90;;;;;;5086429;28;19928;-68
2022/03/05 10:01:08;;;;;;;;;;;9.10;99.90;;;;;;5070499;28;20057;-68
2022/03/05 10:03:42;;;;;;;;;;;9.60;99.90;;;;;;5078770;28;19935;-68
2022/03/05 10:06:15;;;;;;;;;;;9.90;99.90;;;;;;5074897;28;19924;-68
2022/03/05 10:08:42;;;;;;;;;;;10.00;99.90;;;;;;5081884;28;20325;-67
2022/03/05 10:11:09;;;;;;;;;;;9.50;99.90;;;;;;5071814;28;20008;-67
2022/03/05 10:13:36;;;;;;;;;;;9.60;99.90;;;;;;5072431;28;19931;-67
2022/03/05 10:16:04;;;;;;;;;;;10.20;99.90;;;;;;5088598;28;19964;-67
2022/03/05 10:18:32;;;;;;;;;;;10.50;99.90;;;;;;5087848;28;19928;-67
2022/03/05 10:21:00;;;;;;;;;;;10.50;99.90;;;;;;5089078;28;19985;-67
2022/03/05 10:23:30;;;;;;;;;;;11.30;99.90;;;;;;5085669;28;20003;-68
2022/03/05 10:25:57;;;;;;;;;;;12.40;99.70;;;;;;5072696;28;20023;-67
2022/03/05 10:28:28;;;;;;;;;;;12.40;99.20;;;;;;5086758;28;19959;-68
2022/03/05 10:31:01;;;;;;;;;;;12.70;98.90;;;;;;5086609;28;20019;-68
2022/03/05 10:33:36;;;;;;;;;;;13.50;98.60;;;;;;5079631;28;20283;-66
2022/03/05 10:36:06;;;;;;;;;;;14.20;97.00;;;;;;5090690;28;19924;-67
2022/03/05 10:38:44;;;;;;;;;;;14.10;96.10;;;;;;5088033;28;19951;-66
2022/03/05 10:41:12;;;;;;;;;;;14.30;96.80;;;;;;5076322;28;19930;-66
2022/03/05 10:43:39;;;;;;;;;;;14.20;96.00;;;;;;5080126;28;19924;-72
2022/03/05 10:46:06;;;;;;;;;;;14.30;96.00;;;;;;5071876;28;20007;-71
2022/03/05 10:48:33;;;;;;;;;;;14.10;95.20;;;;;;5071196;28;19959;-71
2022/03/05 10:51:04;;;;;;;;;;;14.00;94.90;;;;;;5080596;28;19924;-72
2022/03/05 10:53:34;;;;;;;;;;;14.30;95.20;;;;;;5090717;28;20367;-72
2022/03/05 10:56:20;;;;;;;;;;;14.70;95.30;;;;;;5090439;28;20022;-72
2022/03/05 10:59:25;;;;;;;;;;;14.20;94.00;;;;;;5087918;28;20007;-72
2022/03/05 11:01:53;;;;;;;;;;;14.00;94.40;;;;;;5028092;28;19935;-72
2022/03/05 11:04:20;;;;;;;;;;;14.50;93.00;;;;;;5026978;28;20016;-72
2022/03/05 11:06:49;;;;;;;;;;;15.00;92.90;;;;;;5026750;28;19925;-73
2022/03/05 11:09:16;;;;;;;;;;;15.30;91.60;;;;;;5027322;28;19968;-73
2022/03/05 11:11:48;;;;;;;;;;;15.80;92.60;;;;;;5028247;28;19925;-72
2022/03/05 11:14:18;;;;;;;;;;;16.20;91.60;;;;;;5027792;28;19929;-71
2022/03/05 11:16:47;;;;;;;;;;;15.60;90.70;;;;;;5028206;28;19925;-72
2022/03/05 11:19:14;;;;;;;;;;;15.50;91.20;;;;;;5027903;28;20007;-73
2022/03/05 11:21:43;;;;;;;;;;;14.70;90.40;;;;;;5027501;28;19925;-72
2022/03/05 11:24:14;;;;;;;;;;;14.60;90.70;;;;;;5028378;28;20008;-73
2022/03/05 11:26:43;;;;;;;;;;;15.10;91.10;;;;;;5027600;28;20412;-72
2022/03/05 11:29:27;;;;;;;;;;;14.30;89.40;;;;;;5014418;28;19929;-73
2022/03/05 11:32:10;;;;;;;;;;;13.30;90.00;;;;;;5035626;28;20480;-74
2022/03/05 11:34:44;;;;;;;;;;;13.10;90.80;;;;;;5077781;28;19928;-72
2022/03/05 11:37:14;;;;;;;;;;;14.10;91.00;;;;;;5077885;28;19924;-73
2022/03/05 11:39:41;;;;;;;;;;;14.90;90.00;;;;;;5086204;28;19925;-73
2022/03/05 11:42:11;;;;;;;;;;;14.90;88.60;;;;;;5083016;28;19928;-73
2022/03/05 11:44:41;;;;;;;;;;;13.60;87.70;;;;;;5082376;28;19924;-73
2022/03/05 11:47:27;;;;;;;;;;;12.40;88.50;;;;;;5088491;28;19924;-74
2022/03/05 11:50:00;;;;;;;;;;;11.40;89.60;;;;;;5078012;28;19931;-76
2022/03/05 11:52:39;;;;;;;;;;;10.20;89.60;;;;;;5077993;28;19931;-74
2022/03/05 11:55:18;;;;;;;;;;;9.90;90.40;;;;;;5085536;28;20003;-75
2022/03/05 11:57:51;;;;;;;;;;;11.00;89.80;;;;;;5069941;28;20114;-74
2022/03/05 12:00:19;;;;;;;;;;;11.50;87.20;;;;;;5071061;28;19924;-74
2022/03/05 12:02:46;;;;;;;;;;;11.70;86.30;;;;;;5086824;28;22252;-72
2022/03/05 12:05:32;;;;;;;;;;;11.50;87.70;;;;;;5083812;28;20389;-73
2022/03/05 12:07:59;;;;;;;;;;;11.80;86.40;;;;;;5085771;28;20014;-73
2022/03/05 12:10:26;;;;;;;;;;;11.80;85.40;;;;;;5072631;28;19928;-73
2022/03/05 12:12:56;;;;;;;;;;;11.20;84.70;;;;;;5079003;28;19929;-73
2022/03/05 12:15:32;;;;;;;;;;;10.40;85.90;;;;;;5079365;28;19928;-74
2022/03/05 12:18:02;;;;;;;;;;;10.10;87.10;;;;;;5085644;28;19975;-73
2022/03/05 12:20:34;;;;;;;;;;;9.30;88.80;;;;;;5072480;28;19967;-73
2022/03/05 12:23:04;;;;;;;;;;;8.90;88.90;;;;;;5072902;28;19967;-73
2022/03/05 12:25:34;;;;;;;;;;;9.00;89.70;;;;;;5084146;28;19932;-73
2022/03/05 12:28:02;;;;;;;;;;;9.70;89.00;;;;;;5070233;28;20306;-74
2022/03/05 12:30:37;;;;;;;;;;;10.40;87.00;;;;;;5086303;28;19931;-74
2022/03/05 12:33:08;;;;;;;;;;;11.00;87.80;;;;;;5076334;28;19963;-74
2022/03/05 12:35:36;;;;;;;;;;;11.10;85.90;;;;;;5086485;28;20239;-74
2022/03/05 12:38:03;;;;;;;;;;;11.50;86.80;;;;;;5081580;28;19928;-74
2022/03/05 12:40:31;;;;;;;;;;;12.00;85.00;;;;;;5086945;28;19923;-74
2022/03/05 12:42:58;;;;;;;;;;;12.70;85.30;;;;;;5089130;28;19924;-73
2022/03/05 12:45:27;;;;;;;;;;;12.50;86.30;;;;;;5078908;28;20283;-73
2022/03/05 12:47:55;;;;;;;;;;;12.40;85.20;;;;;;5073907;28;19959;-73
2022/03/05 12:50:32;;;;;;;;;;;11.70;84.80;;;;;;5088640;28;19938;-73
2022/03/05 12:52:58;;;;;;;;;;;11.20;85.20;;;;;;5075863;28;19925;-74
2022/03/05 12:55:29;;;;;;;;;;;11.30;87.10;;;;;;5071880;28;19924;-74
2022/03/05 12:57:58;;;;;;;;;;;11.40;87.40;;;;;;5090170;28;19964;-74
2022/03/05 13:00:26;;;;;;;;;;;11.60;88.10;;;;;;5089532;28;19928;-73
2022/03/05 13:02:56;;;;;;;;;;;11.60;87.80;;;;;;5090525;28;20301;-73
2022/03/05 13:05:26;;;;;;;;;;;11.80;87.70;;;;;;5092671;28;19928;-74
2022/03/05 13:07:52;;;;;;;;;;;12.20;86.80;;;;;;5089808;28;19928;-73
2022/03/05 13:10:19;;;;;;;;;;;11.70;86.00;;;;;;5089006;28;20417;-73
2022/03/05 13:12:46;;;;;;;;;;;11.70;86.30;;;;;;5073649;28;20426;-73
2022/03/05 13:15:39;;;;;;;;;;;11.60;86.00;;;;;;5081122;28;19924;-73
2022/03/05 13:18:10;;;;;;;;;;;12.20;86.30;;;;;;5070867;28;19948;-74
2022/03/05 13:20:40;;;;;;;;;;;13.00;86.00;;;;;;5087077;28;19974;-73
2022/03/05 13:23:07;;;;;;;;;;;13.00;85.90;;;;;;5079398;28;19931;-73
2022/03/05 13:25:41;;;;;;;;;;;14.00;84.40;;;;;;5080584;28;19925;-74
2022/03/05 13:28:22;;;;;;;;;;;13.80;83.20;;;;;;5086980;28;20299;-73
2022/03/05 13:30:50;;;;;;;;;;;12.20;83.10;;;;;;5073704;28;19924;-73
2022/03/05 13:33:33;;;;;;;;;;;11.60;83.90;;;;;;5073049;28;19930;-73
2022/03/05 13:36:09;;;;;;;;;;;12.10;84.00;;;;;;5086430;28;19924;-74
2022/03/05 13:38:35;;;;;;;;;;;12.50;83.50;;;;;;5085214;28;19924;-73
2022/03/05 13:41:09;;;;;;;;;;;12.70;81.90;;;;;;5076799;28;19924;-74
2022/03/05 13:43:37;;;;;;;;;;;13.40;83.30;;;;;;5078758;28;19928;-74
2022/03/05 13:46:07;;;;;;;;;;;14.40;81.70;;;;;;5081695;28;19937;-73
2022/03/05 13:48:46;;;;;;;;;;;13.40;81.10;;;;;;5085437;28;20334;-73
2022/03/05 13:51:15;;;;;;;;;;;12.60;81.90;;;;;;5080762;28;20341;-73
2022/03/05 13:53:46;;;;;;;;;;;12.40;81.00;;;;;;5086213;28;19946;-74
2022/03/05 13:56:13;;;;;;;;;;;13.00;81.50;;;;;;5076284;28;19940;-73
2022/03/05 13:58:41;;;;;;;;;;;12.80;82.50;;;;;;5073277;28;19989;-74
2022/03/05 14:01:29;;;;;;;;;;;12.20;82.30;;;;;;5089703;28;19931;-73
2022/03/05 14:04:12;;;;;;;;;;;11.80;82.30;;;;;;5073057;28;20325;-74
2022/03/05 14:06:45;;;;;;;;;;;12.50;83.30;;;;;;5072292;28;20379;-72
2022/03/05 14:09:17;;;;;;;;;;;12.60;83.60;;;;;;5082169;28;20014;-73
2022/03/05 14:11:43;;;;;;;;;;;12.40;82.10;;;;;;5088621;28;20006;-75
2022/03/05 14:14:10;;;;;;;;;;;11.80;82.50;;;;;;5071311;28;20019;-76
2022/03/05 14:16:38;;;;;;;;;;;11.10;83.40;;;;;;5080170;28;20386;-72
2022/03/05 14:19:04;;;;;;;;;;;10.80;83.90;;;;;;5085785;28;20333;-75
2022/03/05 14:21:31;;;;;;;;;;;11.10;84.10;;;;;;5090166;28;19924;-72
2022/03/05 14:24:06;;;;;;;;;;;11.20;83.20;;;;;;5077260;28;19924;-73
2022/03/05 14:26:34;;;;;;;;;;;11.00;83.30;;;;;;5089356;28;20036;-75
2022/03/05 14:29:00;;;;;;;;;;;11.30;83.90;;;;;;5088296;28;19925;-73
2022/03/05 14:31:27;;;;;;;;;;;11.30;83.90;;;;;;5070709;28;19925;-73
2022/03/05 14:33:54;;;;;;;;;;;11.30;84.00;;;;;;5081442;28;19925;-73